Stations météo

Publicité
Briancon, France (7593): Température de l'air & dewpoint: 19.09.2020 04:00:00 - 25.09.2020 04:00:00 (CEST)Briancon, France (7593): Vitesse du vent: 19.09.2020 04:00:00 - 25.09.2020 04:00:00 (CEST)Briancon, France (7593): Direction du vent: 19.09.2020 04:00:00 - 25.09.2020 04:00:00 (CEST)Briancon, France (7593): Quantités de précipitations: 19.09.2020 04:00:00 - 25.09.2020 04:00:00 (CEST)
Date & Time tt [°C] td [°C] ff [km/h] ff [knt] dd rr [mm]
25.09.2020 04:00:00 8,5 7,7 3 1 N 0,0
25.09.2020 03:00:00 8,7 8,1 4 2 NE 0,0
25.09.2020 02:00:00 8,9 8,6 5 3 W 0,0
25.09.2020 01:00:00 9,1 8,6 4 2 NNE 1,4
25.09.2020 00:00:00 9,5 8,6 0 0 N 0,2
24.09.2020 23:00:00 9,6 8,8 2 1 E 0,0
24.09.2020 22:00:00 9,6 8,5 4 2 N 0,0
24.09.2020 21:00:00 10,2 8,5 5 3 ESE 3,0
24.09.2020 20:00:00 11,2 9,6 8 5 SW 3,2
24.09.2020 19:00:00 12,4 11,3 5 3 WSW 0,0
24.09.2020 18:00:00 12,9 12,1 4 2 SW 0,4
24.09.2020 17:00:00 12,9 11,8 5 3 NNE 2,8
24.09.2020 16:00:00 14,5 10,7 3 2 WNW 0,0
24.09.2020 15:00:00 14,0 11,0 3 2 SSW 0,0
24.09.2020 14:00:00 13,2 10,6 5 3 ENE 0,2
24.09.2020 13:00:00 12,4 10,8 5 3 E 1,2
24.09.2020 12:00:00 14,7 10,1 4 2 WSW 0,0
24.09.2020 11:00:00 13,3 8,8 3 2 NNE 0,0
24.09.2020 10:00:00 11,7 9,4 2 1 NW 0,0
24.09.2020 09:00:00 10,8 9,1 2 1 WNW 0,0
24.09.2020 08:00:00 10,4 8,8 3 1 ENE 0,0
24.09.2020 07:00:00 9,9 8,8 3 2 E 0,0
24.09.2020 06:00:00 10,0 8,6 0 0 N 0,0
24.09.2020 05:00:00 9,8 8,2 3 2 ESE 0,0
24.09.2020 04:00:00 9,7 7,8 4 2 NNE 0,0
24.09.2020 03:00:00 10,2 8,1 3 2 ENE 0,0
24.09.2020 02:00:00 9,2 7,5 3 1 E 0,0
24.09.2020 01:00:00 9,2 7,8 3 2 ENE 0,0
24.09.2020 00:00:00 9,5 7,8 2 1 SSW 0,0
23.09.2020 23:00:00 9,7 8,0 3 1 SSE 0,0
23.09.2020 22:00:00 10,6 8,0 4 2 S 0,0
23.09.2020 21:00:00 11,2 7,9 3 1 SSW 0,0
23.09.2020 20:00:00 12,5 8,0 4 2 ESE 0,0
23.09.2020 19:00:00 15,6 7,4 6 3 SSE 0,0
23.09.2020 18:00:00 17,7 7,7 13 7 WSW 0,0
23.09.2020 17:00:00 17,9 7,3 18 10 SW 0,0
23.09.2020 16:00:00 18,3 8,5 19 10 WSW 0,0
23.09.2020 15:00:00 19,6 9,5 18 10 WSW 0,0
23.09.2020 14:00:00 19,1 10,4 8 4 WSW 0,0
23.09.2020 13:00:00 16,6 8,3 9 5 WSW 0,0
23.09.2020 12:00:00 16,0 8,0 4 2 S 0,0
23.09.2020 11:00:00 14,5 10,1 4 2 SE 0,0
23.09.2020 10:00:00 10,1 9,0 3 2 E 0,0
23.09.2020 09:00:00 9,7 8,8 3 2 E 0,0
23.09.2020 08:00:00 9,8 8,7 0 0 N 0,0
23.09.2020 07:00:00 10,2 9,3 0 0 N 0,0
23.09.2020 06:00:00 10,2 9,4 4 2 SSW 0,0
23.09.2020 05:00:00 10,3 9,5 0 0 N 0,0
23.09.2020 04:00:00 10,5 9,7 0 0 N 0,0
23.09.2020 03:00:00 10,5 9,6 0 0 N 0,0
23.09.2020 02:00:00 10,5 9,4 2 1 ENE 0,0
23.09.2020 01:00:00 10,4 9,3 3 2 ENE 0,0
23.09.2020 00:00:00 10,3 9,4 2 1 ENE 0,2
22.09.2020 23:00:00 10,4 9,2 0 0 N 0,0
22.09.2020 22:00:00 10,4 9,0 2 1 S 0,0
22.09.2020 21:00:00 10,8 9,1 2 1 NE 0,0
22.09.2020 20:00:00 10,9 8,8 5 3 NE 0,0
22.09.2020 19:00:00 11,9 9,8 5 3 NE 0,0
22.09.2020 18:00:00 12,5 9,3 4 2 W 0,0
22.09.2020 17:00:00 13,4 9,6 3 1 N 0,0
22.09.2020 16:00:00 11,8 9,9 6 4 WSW 0,8
22.09.2020 15:00:00 13,7 11,0 3 2 S 1,4
22.09.2020 14:00:00 16,3 9,0 5 3 S 0,0
22.09.2020 13:00:00 16,5 9,4 5 3 SSW 0,0
22.09.2020 12:00:00 15,6 9,7 7 4 SSW 0,0
22.09.2020 11:00:00 14,3 10,1 4 2 E 0,0
22.09.2020 10:00:00 12,1 9,5 0 0 N 0,0
22.09.2020 09:00:00 9,8 8,9 2 1 E 0,0
22.09.2020 08:00:00 9,3 8,7 2 1 NNW 0,0
22.09.2020 07:00:00 9,9 9,0 4 2 E 0,0
22.09.2020 06:00:00 9,8 9,0 0 0 N 0,0
22.09.2020 05:00:00 10,6 9,7 2 1 E 0,0
22.09.2020 04:00:00 10,7 9,8 0 0 N 0,0
22.09.2020 03:00:00 10,6 9,8 2 1 S 0,0
22.09.2020 02:00:00 10,7 9,8 3 2 E 0,0
22.09.2020 01:00:00 11,2 10,3 2 1 ESE 0,0
22.09.2020 00:00:00 11,1 10,2 0 0 N 0,0
21.09.2020 23:00:00 11,7 10,3 2 1 SE 0,0
21.09.2020 22:00:00 11,8 10,4 3 2 ENE 0,0
21.09.2020 21:00:00 12,3 10,5 4 2 ENE 0,0
21.09.2020 20:00:00 13,7 11,2 3 1 NE 0,0
21.09.2020 19:00:00 14,9 11,3 0 0 N 0,0
21.09.2020 18:00:00 15,4 10,2 4 2 E 0,0
21.09.2020 17:00:00 15,6 9,9 15 8 NE 0,2
21.09.2020 16:00:00 16,3 8,5 11 6 ENE 0,0
21.09.2020 15:00:00 16,2 11,1 8 4 NE 0,2
21.09.2020 14:00:00 15,3 11,3 8 4 ENE 0,8
21.09.2020 13:00:00 16,3 10,2 5 3 E 0,0
21.09.2020 12:00:00 15,0 9,8 2 1 S 0,0
21.09.2020 11:00:00 14,0 11,0 4 2 WSW 0,0
21.09.2020 10:00:00 12,1 10,7 2 1 W 0,0
21.09.2020 09:00:00 9,6 9,3 0 0 N 0,0
21.09.2020 08:00:00 9,4 8,6 2 1 ENE 0,0
21.09.2020 07:00:00 10,1 9,6 3 2 ENE 0,0
21.09.2020 06:00:00 10,1 9,5 4 2 ESE 0,0
21.09.2020 05:00:00 10,4 9,9 3 1 S 0,0
21.09.2020 04:00:00 10,6 10,0 0 0 N 0,0
21.09.2020 03:00:00 10,6 10,0 3 2 ENE 0,0
21.09.2020 02:00:00 10,7 10,1 0 0 N 0,0
21.09.2020 01:00:00 10,8 10,2 0 0 N 0,0
21.09.2020 00:00:00 10,9 10,3 2 1 ENE 0,0
20.09.2020 23:00:00 11,0 10,4 2 1 ESE 0,0
20.09.2020 22:00:00 11,3 10,5 2 1 ENE 0,0
20.09.2020 21:00:00 11,6 10,5 4 2 ENE 0,0
20.09.2020 20:00:00 11,7 10,9 3 2 ESE 0,0
20.09.2020 19:00:00 12,6 11,2 2 1 ESE 0,4
20.09.2020 18:00:00 13,3 11,4 2 1 E 0,6
20.09.2020 17:00:00 13,2 11,6 7 4 N 1,6
20.09.2020 16:00:00 16,1 10,6 13 7 SW 0,0
20.09.2020 15:00:00 17,6 9,0 11 6 NNE 0,0
20.09.2020 14:00:00 17,7 8,8 13 7 NE 0,0
20.09.2020 13:00:00 17,8 9,4 11 6 N 0,0
20.09.2020 12:00:00 16,8 9,9 12 7 NNE 0,0
20.09.2020 11:00:00 15,2 10,8 5 3 S 0,0
20.09.2020 10:00:00 14,1 11,4 4 2 W 0,0
20.09.2020 09:00:00 12,6 10,5 2 1 SSE 0,0
20.09.2020 08:00:00 11,8 10,5 4 2 SSW 0,0
20.09.2020 07:00:00 11,5 10,2 2 1 NE 0,0
20.09.2020 06:00:00 11,2 9,8 4 2 NNE 0,0
20.09.2020 05:00:00 11,2 9,9 7 4 E 0,0
20.09.2020 04:00:00 11,4 10,3 2 1 W 0,0
20.09.2020 03:00:00 11,2 10,3 3 1 NE 0,0
20.09.2020 02:00:00 11,4 10,0 2 1 E 0,0
20.09.2020 01:00:00 11,2 9,9 3 2 E 0,0
20.09.2020 00:00:00 12,1 10,8 2 1 ENE 0,0
19.09.2020 23:00:00 11,8 10,2 3 2 E 0,0
19.09.2020 22:00:00 12,2 10,3 3 1 ESE 0,0
19.09.2020 21:00:00 13,7 9,1 13 7 E 0,0
19.09.2020 20:00:00 14,2 11,5 9 5 E 1,8
19.09.2020 19:00:00 17,1 10,5 16 9 NE 0,0
19.09.2020 18:00:00 17,3 11,3 16 9 NE 0,0
19.09.2020 17:00:00 17,7 13,8 3 2 ESE 0,4
19.09.2020 16:00:00 18,9 11,2 13 7 NNE 0,0
19.09.2020 15:00:00 21,0 11,1 4 2 SSW 0,0
19.09.2020 14:00:00 18,8 12,3 6 3 NE 0,6
19.09.2020 13:00:00 17,0 12,9 4 2 S 0,0
19.09.2020 12:00:00 17,8 11,8 4 2 S 0,0
19.09.2020 11:00:00 17,2 12,7 4 2 SSE 0,0
19.09.2020 10:00:00 14,0 13,4 2 1 WSW 0,0
19.09.2020 09:00:00 13,2 12,7 2 1 SSE 0,0
19.09.2020 08:00:00 13,1 12,6 0 0 N 1,0
19.09.2020 07:00:00 13,1 12,5 3 2 SE 1,8
19.09.2020 06:00:00 13,4 12,3 2 1 NE 1,4
19.09.2020 05:00:00 14,9 11,7 9 5 SW 0,0
19.09.2020 04:00:00 15,4 10,8 2 1 SW 0,0

tt = Température de l'air
td = dewpoint
ff = Vitesse du vent
dd = Direction du vent
rr = Quantités de précipitations

stations d'obs. à proximité